sensor_id;sensor_type;location;lat;lon;timestamp;P1;durP1;ratioP1;P2;durP2;ratioP2
38023;SDS011;23834;48.080;11.682;2023-05-19T00:00:43;2.63;;;2.43;;
38023;SDS011;23834;48.080;11.682;2023-05-19T00:03:11;2.20;;;2.00;;
38023;SDS011;23834;48.080;11.682;2023-05-19T00:05:37;2.60;;;2.40;;
38023;SDS011;23834;48.080;11.682;2023-05-19T00:08:04;2.40;;;2.10;;
38023;SDS011;23834;48.080;11.682;2023-05-19T00:10:32;3.20;;;2.30;;
38023;SDS011;23834;48.080;11.682;2023-05-19T00:12:58;2.33;;;2.13;;
38023;SDS011;23834;48.080;11.682;2023-05-19T00:15:23;2.30;;;2.10;;
38023;SDS011;23834;48.080;11.682;2023-05-19T00:17:48;2.60;;;2.40;;
38023;SDS011;23834;48.080;11.682;2023-05-19T00:20:13;3.17;;;2.50;;
38023;SDS011;23834;48.080;11.682;2023-05-19T00:22:39;2.70;;;2.50;;
38023;SDS011;23834;48.080;11.682;2023-05-19T00:25:05;2.57;;;2.40;;
38023;SDS011;23834;48.080;11.682;2023-05-19T00:27:30;2.80;;;2.40;;
38023;SDS011;23834;48.080;11.682;2023-05-19T00:29:55;2.50;;;2.30;;
38023;SDS011;23834;48.080;11.682;2023-05-19T00:32:20;5.20;;;2.47;;
38023;SDS011;23834;48.080;11.682;2023-05-19T00:34:46;3.07;;;2.87;;
38023;SDS011;23834;48.080;11.682;2023-05-19T00:37:12;3.50;;;2.50;;
38023;SDS011;23834;48.080;11.682;2023-05-19T00:39:37;2.93;;;2.50;;
38023;SDS011;23834;48.080;11.682;2023-05-19T00:42:03;3.33;;;2.30;;
38023;SDS011;23834;48.080;11.682;2023-05-19T00:44:30;2.70;;;2.50;;
38023;SDS011;23834;48.080;11.682;2023-05-19T00:46:55;2.47;;;2.27;;
38023;SDS011;23834;48.080;11.682;2023-05-19T00:49:21;3.60;;;2.30;;
38023;SDS011;23834;48.080;11.682;2023-05-19T00:51:46;2.80;;;2.30;;
38023;SDS011;23834;48.080;11.682;2023-05-19T00:54:11;2.40;;;2.20;;
38023;SDS011;23834;48.080;11.682;2023-05-19T00:56:36;2.80;;;2.47;;
38023;SDS011;23834;48.080;11.682;2023-05-19T00:59:01;2.63;;;2.43;;
38023;SDS011;23834;48.080;11.682;2023-05-19T01:01:27;2.37;;;2.17;;
38023;SDS011;23834;48.080;11.682;2023-05-19T01:03:52;3.00;;;2.70;;
38023;SDS011;23834;48.080;11.682;2023-05-19T01:06:20;3.00;;;2.80;;
38023;SDS011;23834;48.080;11.682;2023-05-19T01:08:46;2.67;;;2.10;;
38023;SDS011;23834;48.080;11.682;2023-05-19T01:11:11;2.87;;;2.23;;
38023;SDS011;23834;48.080;11.682;2023-05-19T01:13:36;3.10;;;2.03;;
38023;SDS011;23834;48.080;11.682;2023-05-19T01:16:46;2.47;;;2.27;;
38023;SDS011;23834;48.080;11.682;2023-05-19T01:19:00;3.50;;;2.50;;
38023;SDS011;23834;48.080;11.682;2023-05-19T01:29:40;3.90;;;2.80;;
38023;SDS011;23834;48.080;11.682;2023-05-19T01:32:05;2.30;;;2.20;;
38023;SDS011;23834;48.080;11.682;2023-05-19T01:34:32;2.70;;;2.50;;
38023;SDS011;23834;48.080;11.682;2023-05-19T01:36:58;3.43;;;2.60;;
38023;SDS011;23834;48.080;11.682;2023-05-19T01:39:24;3.00;;;2.63;;
38023;SDS011;23834;48.080;11.682;2023-05-19T01:41:50;2.63;;;2.40;;
38023;SDS011;23834;48.080;11.682;2023-05-19T01:44:16;2.87;;;2.67;;
38023;SDS011;23834;48.080;11.682;2023-05-19T01:46:41;2.73;;;2.40;;
38023;SDS011;23834;48.080;11.682;2023-05-19T01:49:07;2.53;;;2.33;;
38023;SDS011;23834;48.080;11.682;2023-05-19T01:51:32;2.27;;;2.07;;
38023;SDS011;23834;48.080;11.682;2023-05-19T01:53:58;2.97;;;2.40;;
38023;SDS011;23834;48.080;11.682;2023-05-19T01:56:37;3.50;;;2.90;;
38023;SDS011;23834;48.080;11.682;2023-05-19T01:59:07;2.60;;;2.40;;
38023;SDS011;23834;48.080;11.682;2023-05-19T02:01:51;2.43;;;2.23;;
38023;SDS011;23834;48.080;11.682;2023-05-19T02:07:18;3.73;;;2.70;;
38023;SDS011;23834;48.080;11.682;2023-05-19T02:09:52;3.60;;;2.60;;
38023;SDS011;23834;48.080;11.682;2023-05-19T02:14:49;3.15;;;2.78;;
38023;SDS011;23834;48.080;11.682;2023-05-19T02:17:16;3.17;;;2.63;;
38023;SDS011;23834;48.080;11.682;2023-05-19T02:19:42;2.50;;;2.30;;
38023;SDS011;23834;48.080;11.682;2023-05-19T02:22:08;3.00;;;2.40;;
38023;SDS011;23834;48.080;11.682;2023-05-19T02:24:33;2.50;;;2.20;;
38023;SDS011;23834;48.080;11.682;2023-05-19T02:26:58;2.83;;;2.40;;
38023;SDS011;23834;48.080;11.682;2023-05-19T02:29:23;3.27;;;2.97;;
38023;SDS011;23834;48.080;11.682;2023-05-19T02:31:49;5.00;;;2.20;;
38023;SDS011;23834;48.080;11.682;2023-05-19T02:34:14;2.37;;;2.17;;
38023;SDS011;23834;48.080;11.682;2023-05-19T02:36:40;2.97;;;2.73;;
38023;SDS011;23834;48.080;11.682;2023-05-19T02:39:07;2.80;;;2.33;;
38023;SDS011;23834;48.080;11.682;2023-05-19T02:41:32;3.60;;;2.80;;
38023;SDS011;23834;48.080;11.682;2023-05-19T02:43:57;3.10;;;2.27;;
38023;SDS011;23834;48.080;11.682;2023-05-19T02:46:24;2.83;;;2.40;;
38023;SDS011;23834;48.080;11.682;2023-05-19T02:48:49;2.50;;;2.30;;
38023;SDS011;23834;48.080;11.682;2023-05-19T02:51:14;3.17;;;2.67;;
38023;SDS011;23834;48.080;11.682;2023-05-19T02:53:40;2.80;;;2.60;;
38023;SDS011;23834;48.080;11.682;2023-05-19T02:56:05;5.10;;;2.70;;
38023;SDS011;23834;48.080;11.682;2023-05-19T02:58:30;2.97;;;2.40;;
38023;SDS011;23834;48.080;11.682;2023-05-19T03:00:55;2.93;;;2.50;;
38023;SDS011;23834;48.080;11.682;2023-05-19T03:03:21;2.23;;;2.03;;
38023;SDS011;23834;48.080;11.682;2023-05-19T03:05:46;3.20;;;2.90;;
38023;SDS011;23834;48.080;11.682;2023-05-19T03:08:11;2.33;;;2.13;;
38023;SDS011;23834;48.080;11.682;2023-05-19T03:10:37;2.40;;;2.20;;
38023;SDS011;23834;48.080;11.682;2023-05-19T03:13:02;2.93;;;2.60;;
38023;SDS011;23834;48.080;11.682;2023-05-19T03:15:27;2.80;;;2.60;;
38023;SDS011;23834;48.080;11.682;2023-05-19T03:17:52;2.50;;;2.30;;
38023;SDS011;23834;48.080;11.682;2023-05-19T03:20:17;6.03;;;2.80;;
38023;SDS011;23834;48.080;11.682;2023-05-19T03:22:43;2.63;;;2.43;;
38023;SDS011;23834;48.080;11.682;2023-05-19T03:25:08;2.40;;;2.20;;
38023;SDS011;23834;48.080;11.682;2023-05-19T03:27:33;2.73;;;2.53;;
38023;SDS011;23834;48.080;11.682;2023-05-19T03:29:58;4.37;;;2.40;;
38023;SDS011;23834;48.080;11.682;2023-05-19T03:32:23;2.30;;;2.20;;
38023;SDS011;23834;48.080;11.682;2023-05-19T03:34:49;2.67;;;2.47;;
38023;SDS011;23834;48.080;11.682;2023-05-19T03:37:14;3.73;;;2.80;;
38023;SDS011;23834;48.080;11.682;2023-05-19T03:39:39;3.03;;;2.50;;
38023;SDS011;23834;48.080;11.682;2023-05-19T03:42:05;2.60;;;2.40;;
38023;SDS011;23834;48.080;11.682;2023-05-19T03:44:30;2.70;;;2.50;;
38023;SDS011;23834;48.080;11.682;2023-05-19T03:46:55;3.33;;;2.50;;
38023;SDS011;23834;48.080;11.682;2023-05-19T03:49:20;2.40;;;2.20;;
38023;SDS011;23834;48.080;11.682;2023-05-19T03:51:45;2.90;;;2.60;;
38023;SDS011;23834;48.080;11.682;2023-05-19T03:54:10;2.80;;;2.60;;
38023;SDS011;23834;48.080;11.682;2023-05-19T03:56:37;2.47;;;2.27;;
38023;SDS011;23834;48.080;11.682;2023-05-19T03:59:03;2.87;;;2.67;;
38023;SDS011;23834;48.080;11.682;2023-05-19T04:01:30;2.40;;;2.30;;
38023;SDS011;23834;48.080;11.682;2023-05-19T04:03:55;2.83;;;2.53;;
38023;SDS011;23834;48.080;11.682;2023-05-19T04:06:20;2.67;;;2.47;;
38023;SDS011;23834;48.080;11.682;2023-05-19T04:08:45;2.20;;;2.10;;
38023;SDS011;23834;48.080;11.682;2023-05-19T04:11:11;2.60;;;2.40;;
38023;SDS011;23834;48.080;11.682;2023-05-19T04:13:36;3.70;;;2.70;;
38023;SDS011;23834;48.080;11.682;2023-05-19T04:16:01;4.70;;;2.80;;
38023;SDS011;23834;48.080;11.682;2023-05-19T04:18:27;2.80;;;2.47;;
38023;SDS011;23834;48.080;11.682;2023-05-19T04:20:52;2.50;;;2.30;;
38023;SDS011;23834;48.080;11.682;2023-05-19T04:23:17;2.80;;;2.60;;
38023;SDS011;23834;48.080;11.682;2023-05-19T04:25:42;2.37;;;2.20;;
38023;SDS011;23834;48.080;11.682;2023-05-19T04:28:07;2.83;;;2.63;;
38023;SDS011;23834;48.080;11.682;2023-05-19T04:30:33;2.60;;;2.40;;
38023;SDS011;23834;48.080;11.682;2023-05-19T04:32:58;3.10;;;2.40;;
38023;SDS011;23834;48.080;11.682;2023-05-19T04:35:25;2.57;;;2.20;;
38023;SDS011;23834;48.080;11.682;2023-05-19T04:37:50;2.50;;;2.30;;
38023;SDS011;23834;48.080;11.682;2023-05-19T04:40:18;2.83;;;2.63;;
38023;SDS011;23834;48.080;11.682;2023-05-19T04:42:45;2.80;;;2.40;;
38023;SDS011;23834;48.080;11.682;2023-05-19T04:45:10;2.83;;;2.57;;
38023;SDS011;23834;48.080;11.682;2023-05-19T04:47:38;2.63;;;2.43;;
38023;SDS011;23834;48.080;11.682;2023-05-19T04:50:03;3.10;;;2.70;;
38023;SDS011;23834;48.080;11.682;2023-05-19T04:52:29;2.40;;;2.20;;
38023;SDS011;23834;48.080;11.682;2023-05-19T04:54:54;2.70;;;2.50;;
38023;SDS011;23834;48.080;11.682;2023-05-19T04:57:20;2.90;;;2.40;;
38023;SDS011;23834;48.080;11.682;2023-05-19T04:59:45;2.47;;;2.30;;
38023;SDS011;23834;48.080;11.682;2023-05-19T05:02:10;3.40;;;2.80;;
38023;SDS011;23834;48.080;11.682;2023-05-19T05:04:36;2.77;;;2.57;;
38023;SDS011;23834;48.080;11.682;2023-05-19T05:07:01;2.90;;;2.70;;
38023;SDS011;23834;48.080;11.682;2023-05-19T05:09:26;2.47;;;2.27;;
38023;SDS011;23834;48.080;11.682;2023-05-19T05:11:51;3.23;;;2.70;;
38023;SDS011;23834;48.080;11.682;2023-05-19T05:14:17;2.70;;;2.50;;
38023;SDS011;23834;48.080;11.682;2023-05-19T05:16:42;2.67;;;2.43;;
38023;SDS011;23834;48.080;11.682;2023-05-19T05:19:07;3.00;;;2.70;;
38023;SDS011;23834;48.080;11.682;2023-05-19T05:21:33;3.23;;;2.83;;
38023;SDS011;23834;48.080;11.682;2023-05-19T05:23:58;4.07;;;2.37;;
38023;SDS011;23834;48.080;11.682;2023-05-19T05:26:24;2.33;;;2.13;;
38023;SDS011;23834;48.080;11.682;2023-05-19T05:28:52;2.87;;;2.63;;
38023;SDS011;23834;48.080;11.682;2023-05-19T05:31:17;3.23;;;2.93;;
38023;SDS011;23834;48.080;11.682;2023-05-19T05:33:42;3.00;;;2.80;;
38023;SDS011;23834;48.080;11.682;2023-05-19T05:36:08;3.90;;;2.77;;
38023;SDS011;23834;48.080;11.682;2023-05-19T05:38:33;3.47;;;3.07;;
38023;SDS011;23834;48.080;11.682;2023-05-19T05:40:58;2.90;;;2.70;;
38023;SDS011;23834;48.080;11.682;2023-05-19T05:43:24;5.00;;;2.87;;
38023;SDS011;23834;48.080;11.682;2023-05-19T05:45:50;3.20;;;2.73;;
38023;SDS011;23834;48.080;11.682;2023-05-19T05:48:15;3.00;;;2.70;;
38023;SDS011;23834;48.080;11.682;2023-05-19T05:50:43;3.20;;;2.90;;
38023;SDS011;23834;48.080;11.682;2023-05-19T05:53:09;3.10;;;2.83;;
38023;SDS011;23834;48.080;11.682;2023-05-19T05:55:36;3.07;;;2.83;;
38023;SDS011;23834;48.080;11.682;2023-05-19T05:58:01;3.00;;;2.70;;
38023;SDS011;23834;48.080;11.682;2023-05-19T06:00:27;2.50;;;2.27;;
38023;SDS011;23834;48.080;11.682;2023-05-19T06:02:53;3.23;;;2.93;;
38023;SDS011;23834;48.080;11.682;2023-05-19T06:05:18;3.10;;;2.73;;
38023;SDS011;23834;48.080;11.682;2023-05-19T06:07:44;3.10;;;2.80;;
38023;SDS011;23834;48.080;11.682;2023-05-19T06:10:09;3.10;;;2.80;;
38023;SDS011;23834;48.080;11.682;2023-05-19T06:12:35;3.03;;;2.63;;
38023;SDS011;23834;48.080;11.682;2023-05-19T06:15:04;3.87;;;2.67;;
38023;SDS011;23834;48.080;11.682;2023-05-19T06:17:29;3.37;;;2.97;;
38023;SDS011;23834;48.080;11.682;2023-05-19T06:19:54;3.00;;;2.73;;
38023;SDS011;23834;48.080;11.682;2023-05-19T06:22:19;3.87;;;3.17;;
38023;SDS011;23834;48.080;11.682;2023-05-19T06:24:45;3.10;;;2.80;;
38023;SDS011;23834;48.080;11.682;2023-05-19T06:27:10;2.50;;;2.40;;
38023;SDS011;23834;48.080;11.682;2023-05-19T06:29:35;4.10;;;2.77;;
38023;SDS011;23834;48.080;11.682;2023-05-19T06:32:00;3.60;;;3.10;;
38023;SDS011;23834;48.080;11.682;2023-05-19T06:34:26;3.27;;;3.03;;
38023;SDS011;23834;48.080;11.682;2023-05-19T06:36:51;3.03;;;2.73;;
38023;SDS011;23834;48.080;11.682;2023-05-19T06:39:16;3.57;;;2.67;;
38023;SDS011;23834;48.080;11.682;2023-05-19T06:41:42;3.50;;;2.57;;
38023;SDS011;23834;48.080;11.682;2023-05-19T06:44:07;3.03;;;2.63;;
38023;SDS011;23834;48.080;11.682;2023-05-19T06:46:35;3.33;;;3.03;;
38023;SDS011;23834;48.080;11.682;2023-05-19T06:49:00;3.13;;;2.90;;
38023;SDS011;23834;48.080;11.682;2023-05-19T06:51:25;2.80;;;2.60;;
38023;SDS011;23834;48.080;11.682;2023-05-19T06:53:51;4.80;;;2.70;;
38023;SDS011;23834;48.080;11.682;2023-05-19T06:56:16;3.07;;;2.77;;
38023;SDS011;23834;48.080;11.682;2023-05-19T06:58:43;3.30;;;3.00;;
38023;SDS011;23834;48.080;11.682;2023-05-19T07:01:08;3.63;;;3.00;;
38023;SDS011;23834;48.080;11.682;2023-05-19T07:03:33;3.33;;;3.03;;
38023;SDS011;23834;48.080;11.682;2023-05-19T07:05:58;2.87;;;2.67;;
38023;SDS011;23834;48.080;11.682;2023-05-19T07:08:23;3.43;;;3.13;;
38023;SDS011;23834;48.080;11.682;2023-05-19T07:10:49;3.17;;;2.97;;
38023;SDS011;23834;48.080;11.682;2023-05-19T07:13:14;3.30;;;3.00;;
38023;SDS011;23834;48.080;11.682;2023-05-19T07:15:39;3.03;;;2.83;;
38023;SDS011;23834;48.080;11.682;2023-05-19T07:18:04;2.73;;;2.53;;
38023;SDS011;23834;48.080;11.682;2023-05-19T07:20:29;3.90;;;3.30;;
38023;SDS011;23834;48.080;11.682;2023-05-19T07:22:55;3.23;;;2.70;;
38023;SDS011;23834;48.080;11.682;2023-05-19T07:25:20;3.13;;;2.80;;
38023;SDS011;23834;48.080;11.682;2023-05-19T07:27:45;3.07;;;2.77;;
38023;SDS011;23834;48.080;11.682;2023-05-19T07:30:11;2.97;;;2.77;;
38023;SDS011;23834;48.080;11.682;2023-05-19T07:32:36;3.00;;;2.67;;
38023;SDS011;23834;48.080;11.682;2023-05-19T07:35:01;3.03;;;2.83;;
38023;SDS011;23834;48.080;11.682;2023-05-19T07:37:27;2.77;;;2.53;;
38023;SDS011;23834;48.080;11.682;2023-05-19T07:39:52;2.83;;;2.53;;
38023;SDS011;23834;48.080;11.682;2023-05-19T07:42:17;3.10;;;2.90;;
38023;SDS011;23834;48.080;11.682;2023-05-19T07:44:42;2.60;;;2.40;;
38023;SDS011;23834;48.080;11.682;2023-05-19T07:47:07;2.60;;;2.40;;
38023;SDS011;23834;48.080;11.682;2023-05-19T07:49:33;2.90;;;2.70;;
38023;SDS011;23834;48.080;11.682;2023-05-19T07:51:59;4.23;;;2.60;;
38023;SDS011;23834;48.080;11.682;2023-05-19T07:54:24;2.50;;;2.30;;
38023;SDS011;23834;48.080;11.682;2023-05-19T07:56:49;2.50;;;2.30;;
38023;SDS011;23834;48.080;11.682;2023-05-19T07:59:15;2.77;;;2.50;;
38023;SDS011;23834;48.080;11.682;2023-05-19T08:01:40;2.50;;;2.30;;
38023;SDS011;23834;48.080;11.682;2023-05-19T08:04:06;2.90;;;2.70;;
38023;SDS011;23834;48.080;11.682;2023-05-19T08:06:31;2.80;;;2.60;;
38023;SDS011;23834;48.080;11.682;2023-05-19T08:08:56;3.07;;;2.60;;
38023;SDS011;23834;48.080;11.682;2023-05-19T08:11:21;2.60;;;2.40;;
38023;SDS011;23834;48.080;11.682;2023-05-19T08:13:46;2.90;;;2.60;;
38023;SDS011;23834;48.080;11.682;2023-05-19T08:16:13;3.90;;;2.90;;
38023;SDS011;23834;48.080;11.682;2023-05-19T08:18:38;2.87;;;2.57;;
38023;SDS011;23834;48.080;11.682;2023-05-19T08:21:03;2.80;;;2.60;;
38023;SDS011;23834;48.080;11.682;2023-05-19T08:23:28;2.93;;;2.73;;
38023;SDS011;23834;48.080;11.682;2023-05-19T08:25:54;2.97;;;2.50;;
38023;SDS011;23834;48.080;11.682;2023-05-19T08:28:19;2.90;;;2.70;;
38023;SDS011;23834;48.080;11.682;2023-05-19T08:30:44;2.90;;;2.70;;
38023;SDS011;23834;48.080;11.682;2023-05-19T08:33:10;3.13;;;2.83;;
38023;SDS011;23834;48.080;11.682;2023-05-19T08:35:35;3.13;;;2.93;;
38023;SDS011;23834;48.080;11.682;2023-05-19T08:38:01;2.80;;;2.60;;
38023;SDS011;23834;48.080;11.682;2023-05-19T08:40:26;3.30;;;3.00;;
38023;SDS011;23834;48.080;11.682;2023-05-19T08:42:52;2.87;;;2.67;;
38023;SDS011;23834;48.080;11.682;2023-05-19T08:45:18;2.93;;;2.73;;
38023;SDS011;23834;48.080;11.682;2023-05-19T08:47:46;2.73;;;2.53;;
38023;SDS011;23834;48.080;11.682;2023-05-19T08:50:12;3.13;;;2.93;;
38023;SDS011;23834;48.080;11.682;2023-05-19T08:52:40;3.50;;;3.00;;
38023;SDS011;23834;48.080;11.682;2023-05-19T08:55:14;2.90;;;2.70;;
38023;SDS011;23834;48.080;11.682;2023-05-19T08:57:41;2.87;;;2.67;;
38023;SDS011;23834;48.080;11.682;2023-05-19T09:00:06;3.30;;;2.70;;
38023;SDS011;23834;48.080;11.682;2023-05-19T09:02:36;2.60;;;2.40;;
38023;SDS011;23834;48.080;11.682;2023-05-19T09:05:02;2.80;;;2.60;;
38023;SDS011;23834;48.080;11.682;2023-05-19T09:07:27;2.93;;;2.73;;
38023;SDS011;23834;48.080;11.682;2023-05-19T09:09:53;2.60;;;2.40;;
38023;SDS011;23834;48.080;11.682;2023-05-19T09:12:19;3.10;;;2.73;;
38023;SDS011;23834;48.080;11.682;2023-05-19T09:14:44;2.63;;;2.40;;
38023;SDS011;23834;48.080;11.682;2023-05-19T09:17:09;2.80;;;2.60;;
38023;SDS011;23834;48.080;11.682;2023-05-19T09:19:34;3.20;;;3.00;;
38023;SDS011;23834;48.080;11.682;2023-05-19T09:22:00;3.10;;;2.83;;
38023;SDS011;23834;48.080;11.682;2023-05-19T09:24:27;2.90;;;2.70;;
38023;SDS011;23834;48.080;11.682;2023-05-19T09:26:53;2.37;;;2.27;;
38023;SDS011;23834;48.080;11.682;2023-05-19T09:29:19;2.77;;;2.57;;
38023;SDS011;23834;48.080;11.682;2023-05-19T09:31:48;2.87;;;2.67;;
38023;SDS011;23834;48.080;11.682;2023-05-19T09:34:14;3.47;;;3.27;;
38023;SDS011;23834;48.080;11.682;2023-05-19T09:36:39;3.23;;;2.93;;
38023;SDS011;23834;48.080;11.682;2023-05-19T09:39:12;3.37;;;3.07;;
38023;SDS011;23834;48.080;11.682;2023-05-19T09:41:38;2.90;;;2.70;;
38023;SDS011;23834;48.080;11.682;2023-05-19T09:44:03;3.23;;;2.93;;
38023;SDS011;23834;48.080;11.682;2023-05-19T09:46:29;3.30;;;3.00;;
38023;SDS011;23834;48.080;11.682;2023-05-19T09:48:56;3.10;;;2.90;;
38023;SDS011;23834;48.080;11.682;2023-05-19T09:51:21;3.10;;;2.90;;
38023;SDS011;23834;48.080;11.682;2023-05-19T09:53:46;3.30;;;3.10;;
38023;SDS011;23834;48.080;11.682;2023-05-19T09:56:12;3.23;;;3.03;;
38023;SDS011;23834;48.080;11.682;2023-05-19T09:58:40;3.43;;;3.20;;
38023;SDS011;23834;48.080;11.682;2023-05-19T10:01:05;3.40;;;3.00;;
38023;SDS011;23834;48.080;11.682;2023-05-19T10:03:31;3.20;;;3.00;;
38023;SDS011;23834;48.080;11.682;2023-05-19T10:05:57;4.60;;;3.30;;
38023;SDS011;23834;48.080;11.682;2023-05-19T10:08:23;3.60;;;3.30;;
38023;SDS011;23834;48.080;11.682;2023-05-19T10:10:51;2.87;;;2.73;;
38023;SDS011;23834;48.080;11.682;2023-05-19T10:13:16;3.53;;;3.23;;
38023;SDS011;23834;48.080;11.682;2023-05-19T10:15:42;3.90;;;3.60;;
38023;SDS011;23834;48.080;11.682;2023-05-19T10:18:10;3.70;;;3.40;;
38023;SDS011;23834;48.080;11.682;2023-05-19T10:20:36;3.80;;;3.50;;
38023;SDS011;23834;48.080;11.682;2023-05-19T10:23:01;3.73;;;3.40;;
38023;SDS011;23834;48.080;11.682;2023-05-19T10:25:27;3.67;;;3.23;;
38023;SDS011;23834;48.080;11.682;2023-05-19T10:27:54;3.70;;;3.50;;
38023;SDS011;23834;48.080;11.682;2023-05-19T10:30:24;3.10;;;2.90;;
38023;SDS011;23834;48.080;11.682;2023-05-19T10:32:50;3.33;;;3.10;;
38023;SDS011;23834;48.080;11.682;2023-05-19T10:40:29;3.57;;;3.30;;
38023;SDS011;23834;48.080;11.682;2023-05-19T10:45:32;4.60;;;3.10;;
38023;SDS011;23834;48.080;11.682;2023-05-19T10:47:59;3.47;;;3.23;;
38023;SDS011;23834;48.080;11.682;2023-05-19T10:50:24;3.00;;;2.80;;
38023;SDS011;23834;48.080;11.682;2023-05-19T10:52:52;3.13;;;2.93;;
38023;SDS011;23834;48.080;11.682;2023-05-19T10:55:43;3.83;;;3.53;;
38023;SDS011;23834;48.080;11.682;2023-05-19T10:58:04;4.07;;;3.73;;
38023;SDS011;23834;48.080;11.682;2023-05-19T11:00:30;3.20;;;3.00;;
38023;SDS011;23834;48.080;11.682;2023-05-19T11:03:14;3.33;;;3.13;;
38023;SDS011;23834;48.080;11.682;2023-05-19T11:05:39;3.67;;;3.47;;
38023;SDS011;23834;48.080;11.682;2023-05-19T11:08:05;4.53;;;3.57;;
38023;SDS011;23834;48.080;11.682;2023-05-19T11:10:35;3.63;;;3.33;;
38023;SDS011;23834;48.080;11.682;2023-05-19T11:13:00;4.33;;;3.27;;
38023;SDS011;23834;48.080;11.682;2023-05-19T11:15:26;3.90;;;3.40;;
38023;SDS011;23834;48.080;11.682;2023-05-19T11:17:51;3.17;;;2.97;;
38023;SDS011;23834;48.080;11.682;2023-05-19T11:20:23;4.20;;;3.80;;
38023;SDS011;23834;48.080;11.682;2023-05-19T11:25:45;3.63;;;3.43;;
38023;SDS011;23834;48.080;11.682;2023-05-19T11:28:11;3.50;;;3.30;;
38023;SDS011;23834;48.080;11.682;2023-05-19T11:30:37;4.10;;;3.70;;
38023;SDS011;23834;48.080;11.682;2023-05-19T11:33:04;3.90;;;3.60;;
38023;SDS011;23834;48.080;11.682;2023-05-19T11:35:30;3.47;;;3.17;;
38023;SDS011;23834;48.080;11.682;2023-05-19T11:37:56;3.80;;;3.50;;
38023;SDS011;23834;48.080;11.682;2023-05-19T11:40:22;4.00;;;3.70;;
38023;SDS011;23834;48.080;11.682;2023-05-19T11:42:47;3.43;;;3.13;;
38023;SDS011;23834;48.080;11.682;2023-05-19T11:45:13;3.60;;;3.30;;
38023;SDS011;23834;48.080;11.682;2023-05-19T11:47:38;4.20;;;3.80;;
38023;SDS011;23834;48.080;11.682;2023-05-19T11:50:03;3.70;;;3.40;;
38023;SDS011;23834;48.080;11.682;2023-05-19T11:52:28;4.00;;;3.70;;
38023;SDS011;23834;48.080;11.682;2023-05-19T11:54:54;3.80;;;3.50;;
38023;SDS011;23834;48.080;11.682;2023-05-19T11:57:24;3.70;;;3.40;;
38023;SDS011;23834;48.080;11.682;2023-05-19T11:59:49;4.37;;;3.97;;
38023;SDS011;23834;48.080;11.682;2023-05-19T12:02:23;4.10;;;3.80;;
38023;SDS011;23834;48.080;11.682;2023-05-19T12:04:49;4.47;;;4.00;;
38023;SDS011;23834;48.080;11.682;2023-05-19T12:07:15;4.40;;;3.40;;
38023;SDS011;23834;48.080;11.682;2023-05-19T12:09:44;3.90;;;3.60;;
38023;SDS011;23834;48.080;11.682;2023-05-19T12:12:11;4.13;;;3.83;;
38023;SDS011;23834;48.080;11.682;2023-05-19T12:14:37;3.43;;;3.23;;
38023;SDS011;23834;48.080;11.682;2023-05-19T12:17:19;3.60;;;3.30;;
38023;SDS011;23834;48.080;11.682;2023-05-19T12:19:45;4.37;;;3.97;;
38023;SDS011;23834;48.080;11.682;2023-05-19T12:22:10;4.23;;;3.93;;
38023;SDS011;23834;48.080;11.682;2023-05-19T12:24:36;4.43;;;4.10;;
38023;SDS011;23834;48.080;11.682;2023-05-19T12:27:16;3.93;;;3.63;;
38023;SDS011;23834;48.080;11.682;2023-05-19T12:29:41;3.93;;;3.63;;
38023;SDS011;23834;48.080;11.682;2023-05-19T12:32:07;4.20;;;3.80;;
38023;SDS011;23834;48.080;11.682;2023-05-19T12:34:36;4.73;;;3.80;;
38023;SDS011;23834;48.080;11.682;2023-05-19T12:37:02;4.20;;;3.87;;
38023;SDS011;23834;48.080;11.682;2023-05-19T12:39:28;4.20;;;3.90;;
38023;SDS011;23834;48.080;11.682;2023-05-19T12:41:59;4.57;;;4.17;;
38023;SDS011;23834;48.080;11.682;2023-05-19T12:44:24;4.33;;;4.03;;
38023;SDS011;23834;48.080;11.682;2023-05-19T12:46:51;4.30;;;4.00;;
38023;SDS011;23834;48.080;11.682;2023-05-19T12:49:16;4.80;;;4.40;;
38023;SDS011;23834;48.080;11.682;2023-05-19T12:51:42;4.10;;;3.80;;
38023;SDS011;23834;48.080;11.682;2023-05-19T12:54:17;4.27;;;3.97;;
38023;SDS011;23834;48.080;11.682;2023-05-19T12:56:48;4.47;;;4.17;;
38023;SDS011;23834;48.080;11.682;2023-05-19T12:59:19;3.93;;;3.63;;
38023;SDS011;23834;48.080;11.682;2023-05-19T13:01:44;4.30;;;4.00;;
38023;SDS011;23834;48.080;11.682;2023-05-19T13:04:09;4.00;;;3.70;;
38023;SDS011;23834;48.080;11.682;2023-05-19T13:06:35;4.00;;;3.77;;
38023;SDS011;23834;48.080;11.682;2023-05-19T13:09:00;4.43;;;4.03;;
38023;SDS011;23834;48.080;11.682;2023-05-19T13:11:25;4.30;;;3.90;;
38023;SDS011;23834;48.080;11.682;2023-05-19T13:13:50;4.90;;;4.40;;
38023;SDS011;23834;48.080;11.682;2023-05-19T13:16:15;4.97;;;4.23;;
38023;SDS011;23834;48.080;11.682;2023-05-19T13:18:40;4.43;;;4.03;;
38023;SDS011;23834;48.080;11.682;2023-05-19T13:21:06;4.37;;;4.07;;
38023;SDS011;23834;48.080;11.682;2023-05-19T13:23:31;4.63;;;4.23;;
38023;SDS011;23834;48.080;11.682;2023-05-19T13:25:56;4.70;;;4.40;;
38023;SDS011;23834;48.080;11.682;2023-05-19T13:28:22;4.67;;;4.27;;
38023;SDS011;23834;48.080;11.682;2023-05-19T13:30:47;4.57;;;4.23;;
38023;SDS011;23834;48.080;11.682;2023-05-19T13:33:13;4.67;;;4.37;;
38023;SDS011;23834;48.080;11.682;2023-05-19T13:35:38;4.97;;;4.60;;
38023;SDS011;23834;48.080;11.682;2023-05-19T13:38:07;5.13;;;4.20;;
38023;SDS011;23834;48.080;11.682;2023-05-19T13:40:33;4.80;;;4.40;;
38023;SDS011;23834;48.080;11.682;2023-05-19T13:42:59;4.80;;;4.40;;
38023;SDS011;23834;48.080;11.682;2023-05-19T13:45:24;4.40;;;4.10;;
38023;SDS011;23834;48.080;11.682;2023-05-19T13:47:49;4.63;;;4.33;;
38023;SDS011;23834;48.080;11.682;2023-05-19T13:50:15;5.00;;;4.57;;
38023;SDS011;23834;48.080;11.682;2023-05-19T13:52:40;4.60;;;4.30;;
38023;SDS011;23834;48.080;11.682;2023-05-19T13:55:06;5.07;;;4.57;;
38023;SDS011;23834;48.080;11.682;2023-05-19T13:57:31;4.70;;;4.30;;
38023;SDS011;23834;48.080;11.682;2023-05-19T13:59:57;5.07;;;4.67;;
38023;SDS011;23834;48.080;11.682;2023-05-19T14:02:22;4.53;;;4.17;;
38023;SDS011;23834;48.080;11.682;2023-05-19T14:04:47;5.00;;;4.60;;
38023;SDS011;23834;48.080;11.682;2023-05-19T14:07:12;4.80;;;4.40;;
38023;SDS011;23834;48.080;11.682;2023-05-19T14:09:37;5.07;;;4.57;;
38023;SDS011;23834;48.080;11.682;2023-05-19T14:12:03;4.90;;;4.50;;
38023;SDS011;23834;48.080;11.682;2023-05-19T14:14:28;4.83;;;4.23;;
38023;SDS011;23834;48.080;11.682;2023-05-19T14:16:53;6.07;;;4.40;;
38023;SDS011;23834;48.080;11.682;2023-05-19T14:19:18;5.20;;;4.80;;
38023;SDS011;23834;48.080;11.682;2023-05-19T14:21:44;4.83;;;4.40;;
38023;SDS011;23834;48.080;11.682;2023-05-19T14:24:09;4.67;;;4.27;;
38023;SDS011;23834;48.080;11.682;2023-05-19T14:26:34;5.20;;;4.70;;
38023;SDS011;23834;48.080;11.682;2023-05-19T14:29:00;5.17;;;4.67;;
38023;SDS011;23834;48.080;11.682;2023-05-19T14:31:25;4.50;;;4.10;;
38023;SDS011;23834;48.080;11.682;2023-05-19T14:33:50;4.60;;;4.20;;
38023;SDS011;23834;48.080;11.682;2023-05-19T14:36:15;5.47;;;4.43;;
38023;SDS011;23834;48.080;11.682;2023-05-19T14:38:41;4.33;;;4.03;;
38023;SDS011;23834;48.080;11.682;2023-05-19T14:41:06;4.50;;;4.10;;
38023;SDS011;23834;48.080;11.682;2023-05-19T14:43:31;4.20;;;3.90;;
38023;SDS011;23834;48.080;11.682;2023-05-19T14:45:56;4.63;;;4.10;;
38023;SDS011;23834;48.080;11.682;2023-05-19T14:48:21;4.80;;;4.40;;
38023;SDS011;23834;48.080;11.682;2023-05-19T14:50:46;4.17;;;3.87;;